Arcadia, Louisiana
Current Conditions -  °F | °C
As of 6:35 PM on Sunday 25 Jan 2015 (Local Time) from KRSN Reporting Station
Clear Clear  
Wind Chill: 58°   Ceiling: Unl
Heat Index: 58°   Visibility: 10mi
Dew Point: 32°   Wind: 8mph
Humidity: 37%   Direction: 310°NW
Pressure: 29.98"   Gusts: NA
Location:  32.55°N, 92.92°W
Report Text: KRSN 260035Z AUTO 31007KT 10SM CLR 15/00 A2998 RMK AO2 T01450000
Loading
Personal Weather Stations






























Interactive Weather Map New forecast layout! Learn more

10-Day Weather Forecast

Advertisements
Track Severe Weather on mobile